Time,TemperatureF,DewpointF,PressureIn,WindDirection,WindDirectionDegrees,WindSpeedMPH,WindSpeedGustMPH,Humidity,HourlyPrecipIn,Conditions,Clouds,dailyrainin,SoftwareType,DateUTC
2013-05-14 00:02:00,41.9,36.0,30.17,East,83,0.0,1.0,78,0.00,,,0.00,weatherlink.com 1.10,2013-05-14 04:02:00,
2013-05-14 00:17:00,41.5,33.0,30.17,East,92,0.0,1.0,73,0.00,,,0.00,weatherlink.com 1.10,2013-05-14 04:17:00,
2013-05-14 00:32:00,41.3,34.0,30.17,East,92,0.0,0.0,76,0.00,,,0.00,weatherlink.com 1.10,2013-05-14 04:32:00,
2013-05-14 00:47:00,41.0,34.0,30.17,East,92,0.0,0.0,77,0.00,,,0.00,weatherlink.com 1.10,2013-05-14 04:47:00,
2013-05-14 01:02:00,40.6,32.0,30.17,East,92,0.0,0.0,72,0.00,,,0.00,weatherlink.com 1.10,2013-05-14 05:02:00,
2013-05-14 01:17:00,40.5,32.0,30.17,East,92,0.0,0.0,72,0.00,,,0.00,weatherlink.com 1.10,2013-05-14 05:17:00,
2013-05-14 01:32:00,40.2,33.0,30.17,East,92,0.0,0.0,75,0.00,,,0.00,weatherlink.com 1.10,2013-05-14 05:32:00,
2013-05-14 01:47:00,40.3,33.0,30.17,East,92,0.0,0.0,75,0.00,,,0.00,weatherlink.com 1.10,2013-05-14 05:47:00,
2013-05-14 02:02:00,40.0,33.0,30.17,East,92,0.0,0.0,77,0.00,,,0.00,weatherlink.com 1.10,2013-05-14 06:02:00,
2013-05-14 02:17:00,40.0,32.0,30.17,East,92,0.0,0.0,74,0.00,,,0.00,weatherlink.com 1.10,2013-05-14 06:17:00,
2013-05-14 02:32:00,39.9,33.0,30.17,East,92,0.0,0.0,77,0.00,,,0.00,weatherlink.com 1.10,2013-05-14 06:32:00,
2013-05-14 02:47:00,38.9,33.0,30.17,East,92,0.0,0.0,80,0.00,,,0.00,weatherlink.com 1.10,2013-05-14 06:47:00,
2013-05-14 03:02:00,39.0,32.0,30.17,East,92,0.0,2.0,76,0.00,,,0.00,weatherlink.com 1.10,2013-05-14 07:02:00,
2013-05-14 03:17:00,39.1,33.0,30.17,East,92,0.0,1.0,78,0.00,,,0.00,weatherlink.com 1.10,2013-05-14 07:17:00,
2013-05-14 03:32:00,38.8,33.0,30.17,East,92,0.0,1.0,80,0.00,,,0.00,weatherlink.com 1.10,2013-05-14 07:32:00,
2013-05-14 03:47:00,38.6,33.0,30.18,East,92,0.0,1.0,79,0.00,,,0.00,weatherlink.com 1.10,2013-05-14 07:47:00,
2013-05-14 04:02:00,38.5,33.0,30.18,East,92,0.0,2.0,79,0.00,,,0.00,weatherlink.com 1.10,2013-05-14 08:02:00,
2013-05-14 04:17:00,38.6,32.0,30.18,East,92,0.0,2.0,78,0.00,,,0.00,weatherlink.com 1.10,2013-05-14 08:17:00,
2013-05-14 04:32:00,38.0,32.0,30.18,East,92,0.0,1.0,80,0.00,,,0.00,weatherlink.com 1.10,2013-05-14 08:32:00,
2013-05-14 04:47:00,36.6,32.0,30.18,East,92,0.0,0.0,82,0.00,,,0.00,weatherlink.com 1.10,2013-05-14 08:47:00,
2013-05-14 05:02:00,35.2,31.0,30.18,East,92,0.0,0.0,85,0.00,,,0.00,weatherlink.com 1.10,2013-05-14 09:02:00,
2013-05-14 05:17:00,34.4,31.0,30.18,East,92,0.0,0.0,88,0.00,,,0.00,weatherlink.com 1.10,2013-05-14 09:17:00,
2013-05-14 05:32:00,34.8,32.0,30.19,East,92,0.0,2.0,89,0.00,,,0.00,weatherlink.com 1.10,2013-05-14 09:32:00,
2013-05-14 05:47:00,35.7,31.0,30.19,WSW,238,0.0,0.0,84,0.00,,,0.00,weatherlink.com 1.10,2013-05-14 09:47:00,
2013-05-14 06:02:00,34.5,31.0,30.19,WSW,238,0.0,0.0,87,0.00,,,0.00,weatherlink.com 1.10,2013-05-14 10:02:00,
2013-05-14 06:17:00,33.7,31.0,30.20,WSW,238,0.0,0.0,88,0.00,,,0.00,weatherlink.com 1.10,2013-05-14 10:17:00,
2013-05-14 06:32:00,33.3,31.0,30.20,WSW,238,0.0,0.0,91,0.00,,,0.00,weatherlink.com 1.10,2013-05-14 10:32:00,
2013-05-14 06:47:00,33.4,31.0,30.20,WSW,238,0.0,0.0,91,0.00,,,0.00,weatherlink.com 1.10,2013-05-14 10:47:00,
2013-05-14 07:02:00,33.6,32.0,30.20,WSW,238,0.0,2.0,92,0.00,,,0.00,weatherlink.com 1.10,2013-05-14 11:02:00,
2013-05-14 07:17:00,33.9,32.0,30.19,North,355,0.0,1.0,91,0.00,,,0.00,weatherlink.com 1.10,2013-05-14 11:17:00,
2013-05-14 07:32:00,35.6,33.0,30.20,NNE,17,0.0,2.0,91,0.00,,,0.00,weatherlink.com 1.10,2013-05-14 11:32:00,
2013-05-14 07:47:00,37.9,34.0,30.20,NNE,17,0.0,2.0,85,0.00,,,0.00,weatherlink.com 1.10,2013-05-14 11:47:00,
2013-05-14 08:02:00,40.0,35.0,30.20,NNE,17,1.0,2.0,81,0.00,,,0.00,weatherlink.com 1.10,2013-05-14 12:02:00,
2013-05-14 08:18:00,41.5,35.0,30.21,WNW,292,1.0,3.0,78,0.00,,,0.00,weatherlink.com 1.10,2013-05-14 12:18:00,
2013-05-14 08:33:00,42.6,36.0,30.21,WNW,300,1.0,2.0,78,0.00,,,0.00,weatherlink.com 1.10,2013-05-14 12:33:00,
2013-05-14 08:48:00,43.3,36.0,30.21,WNW,300,0.0,1.0,75,0.00,,,0.00,weatherlink.com 1.10,2013-05-14 12:48:00,
2013-05-14 09:03:00,44.9,37.0,30.21,NNE,28,0.0,3.0,73,0.00,,,0.00,weatherlink.com 1.10,2013-05-14 13:03:00,
2013-05-14 09:18:00,46.3,36.0,30.20,NE,46,3.0,3.0,68,0.00,,,0.00,weatherlink.com 1.10,2013-05-14 13:18:00,
2013-05-14 09:33:00,47.6,37.0,30.20,WNW,283,0.0,3.0,67,0.00,,,0.00,weatherlink.com 1.10,2013-05-14 13:33:00,
2013-05-14 09:48:00,48.5,38.0,30.19,SSE,159,1.0,4.0,66,0.00,,,0.00,weatherlink.com 1.10,2013-05-14 13:48:00,
2013-05-14 10:03:00,50.7,38.0,30.19,North,10,2.0,3.0,62,0.00,,,0.00,weatherlink.com 1.10,2013-05-14 14:03:00,
2013-05-14 10:18:00,52.2,36.0,30.18,North,11,1.0,3.0,54,0.00,,,0.00,weatherlink.com 1.10,2013-05-14 14:18:00,
2013-05-14 10:33:00,53.7,38.0,30.18,ENE,57,1.0,5.0,55,0.00,,,0.00,weatherlink.com 1.10,2013-05-14 14:33:00,
2013-05-14 10:48:00,54.2,39.0,30.17,NNW,341,0.0,3.0,56,0.00,,,0.00,weatherlink.com 1.10,2013-05-14 14:48:00,
2013-05-14 11:03:00,54.6,36.0,30.18,ESE,113,1.0,7.0,50,0.00,,,0.00,weatherlink.com 1.10,2013-05-14 15:03:00,
2013-05-14 11:18:00,55.1,36.0,30.17,WNW,301,2.0,6.0,49,0.00,,,0.00,weatherlink.com 1.10,2013-05-14 15:18:00,
2013-05-14 11:33:00,56.7,35.0,30.16,North,355,1.0,5.0,45,0.00,,,0.00,weatherlink.com 1.10,2013-05-14 15:33:00,
2013-05-14 11:48:00,57.7,36.0,30.15,ENE,69,2.0,4.0,45,0.00,,,0.00,weatherlink.com 1.10,2013-05-14 15:48:00,
2013-05-14 12:03:00,58.6,38.0,30.15,East,82,2.0,4.0,46,0.00,,,0.00,weatherlink.com 1.10,2013-05-14 16:03:00,
2013-05-14 12:18:00,58.6,39.0,30.14,ENE,65,2.0,8.0,49,0.00,,,0.00,weatherlink.com 1.10,2013-05-14 16:18:00,
2013-05-14 12:33:00,58.4,33.0,30.13,ENE,65,1.0,3.0,38,0.00,,,0.00,weatherlink.com 1.10,2013-05-14 16:33:00,
2013-05-14 12:48:00,60.8,33.0,30.13,NNE,33,2.0,4.0,35,0.00,,,0.00,weatherlink.com 1.10,2013-05-14 16:48:00,
2013-05-14 13:03:00,61.1,36.0,30.12,NNE,13,2.0,6.0,40,0.00,,,0.00,weatherlink.com 1.10,2013-05-14 17:03:00,
2013-05-14 13:19:00,62.4,33.0,30.12,ENE,59,4.0,4.0,33,0.00,,,0.00,weatherlink.com 1.10,2013-05-14 17:19:00,
2013-05-14 13:34:00,62.0,36.0,30.11,SW,235,1.0,4.0,38,0.00,,,0.00,weatherlink.com 1.10,2013-05-14 17:34:00,
2013-05-14 13:49:00,61.9,35.0,30.10,East,87,1.0,4.0,37,0.00,,,0.00,weatherlink.com 1.10,2013-05-14 17:49:00,
2013-05-14 14:04:00,61.3,35.0,30.10,SE,144,1.0,2.0,37,0.00,,,0.00,weatherlink.com 1.10,2013-05-14 18:04:00,
2013-05-14 14:19:00,61.1,33.0,30.10,NE,54,2.0,3.0,35,0.00,,,0.00,weatherlink.com 1.10,2013-05-14 18:19:00,
2013-05-14 14:34:00,60.5,35.0,30.09,NNE,31,0.0,2.0,38,0.00,,,0.00,weatherlink.com 1.10,2013-05-14 18:34:00,
2013-05-14 14:49:00,60.2,34.0,30.09,ENE,75,2.0,3.0,38,0.00,,,0.00,weatherlink.com 1.10,2013-05-14 18:49:00,
2013-05-14 15:04:00,60.3,34.0,30.09,SE,130,0.0,3.0,37,0.00,,,0.00,weatherlink.com 1.10,2013-05-14 19:04:00,
2013-05-14 15:19:00,60.4,36.0,30.09,SE,126,0.0,1.0,40,0.00,,,0.00,weatherlink.com 1.10,2013-05-14 19:19:00,
2013-05-14 15:34:00,60.7,36.0,30.08,SE,126,0.0,1.0,40,0.00,,,0.00,weatherlink.com 1.10,2013-05-14 19:34:00,
2013-05-14 15:49:00,60.7,35.0,30.08,SE,126,0.0,1.0,38,0.00,,,0.00,weatherlink.com 1.10,2013-05-14 19:49:00,
2013-05-14 16:04:00,62.1,40.0,30.07,East,84,1.0,4.0,45,0.00,,,0.00,weatherlink.com 1.10,2013-05-14 20:04:00,
2013-05-14 16:19:00,62.3,42.0,30.07,ENE,70,1.0,3.0,47,0.00,,,0.00,weatherlink.com 1.10,2013-05-14 20:19:00,
2013-05-14 16:34:00,62.4,39.0,30.07,SE,144,0.0,5.0,42,0.00,,,0.00,weatherlink.com 1.10,2013-05-14 20:34:00,
2013-05-14 16:49:00,63.6,35.0,30.06,SW,214,1.0,3.0,35,0.00,,,0.00,weatherlink.com 1.10,2013-05-14 20:49:00,
2013-05-14 17:04:00,63.0,39.0,30.06,NE,51,2.0,2.0,41,0.00,,,0.00,weatherlink.com 1.10,2013-05-14 21:04:00,
2013-05-14 17:19:00,61.7,42.0,30.06,SSE,153,1.0,3.0,48,0.00,,,0.00,weatherlink.com 1.10,2013-05-14 21:19:00,
2013-05-14 17:34:00,61.6,39.0,30.05,South,171,0.0,3.0,44,0.00,,,0.00,weatherlink.com 1.10,2013-05-14 21:34:00,
2013-05-14 17:49:00,61.2,36.0,30.05,South,171,1.0,3.0,39,0.00,,,0.00,weatherlink.com 1.10,2013-05-14 21:49:00,
2013-05-14 18:04:00,61.2,40.0,30.05,South,171,0.0,0.0,45,0.00,,,0.00,weatherlink.com 1.10,2013-05-14 22:04:00,
2013-05-14 18:19:00,60.8,40.0,30.05,South,171,0.0,1.0,46,0.00,,,0.00,weatherlink.com 1.10,2013-05-14 22:19:00,
2013-05-14 18:34:00,60.4,38.0,30.03,South,171,1.0,3.0,44,0.00,,,0.00,weatherlink.com 1.10,2013-05-14 22:34:00,
2013-05-14 18:49:00,59.8,41.0,30.01,South,171,0.0,2.0,51,0.00,,,0.00,weatherlink.com 1.10,2013-05-14 22:49:00,
2013-05-14 19:04:00,59.6,41.0,30.02,NE,55,2.0,3.0,50,0.00,,,0.00,weatherlink.com 1.10,2013-05-14 23:04:00,
2013-05-14 19:19:00,59.0,40.0,30.02,South,189,2.0,3.0,49,0.00,,,0.00,weatherlink.com 1.10,2013-05-14 23:19:00,
2013-05-14 19:34:00,58.6,40.0,30.02,South,183,1.0,3.0,51,0.00,,,0.00,weatherlink.com 1.10,2013-05-14 23:34:00,
2013-05-14 19:49:00,58.1,39.0,30.02,SSW,205,0.0,4.0,50,0.00,,,0.00,weatherlink.com 1.10,2013-05-14 23:49:00,
2013-05-14 20:04:00,57.5,40.0,30.03,SSW,206,0.0,3.0,53,0.00,,,0.00,weatherlink.com 1.10,2013-05-15 00:04:00,
2013-05-14 20:19:00,57.1,40.0,30.02,SSW,196,1.0,4.0,53,0.00,,,0.00,weatherlink.com 1.10,2013-05-15 00:19:00,
2013-05-14 20:34:00,56.7,39.0,30.02,SSW,196,0.0,3.0,52,0.00,,,0.00,weatherlink.com 1.10,2013-05-15 00:34:00,
2013-05-14 20:49:00,56.4,40.0,30.02,SSW,196,0.0,2.0,54,0.00,,,0.00,weatherlink.com 1.10,2013-05-15 00:49:00,
2013-05-14 21:04:00,56.1,40.0,30.03,SSW,196,0.0,0.0,55,0.00,,,0.00,weatherlink.com 1.10,2013-05-15 01:04:00,
2013-05-14 21:19:00,55.8,40.0,30.03,SSW,196,0.0,0.0,56,0.00,,,0.00,weatherlink.com 1.10,2013-05-15 01:19:00,
2013-05-14 21:34:00,55.6,40.0,30.03,SSW,196,0.0,0.0,57,0.00,,,0.00,weatherlink.com 1.10,2013-05-15 01:34:00,
2013-05-14 21:49:00,55.4,40.0,30.04,SSW,196,0.0,0.0,56,0.00,,,0.00,weatherlink.com 1.10,2013-05-15 01:49:00,
2013-05-14 22:04:00,55.5,40.0,30.04,SSW,196,0.0,1.0,56,0.00,,,0.00,weatherlink.com 1.10,2013-05-15 02:04:00,
2013-05-14 22:19:00,55.4,40.0,30.04,SSW,196,0.0,0.0,56,0.00,,,0.00,weatherlink.com 1.10,2013-05-15 02:19:00,
2013-05-14 22:34:00,55.0,40.0,30.04,SSW,196,0.0,0.0,57,0.00,,,0.00,weatherlink.com 1.10,2013-05-15 02:34:00,
2013-05-14 22:49:00,54.7,40.0,30.03,SSW,196,0.0,0.0,58,0.00,,,0.00,weatherlink.com 1.10,2013-05-15 02:49:00,
2013-05-14 23:04:00,54.6,41.0,30.03,SSW,196,0.0,0.0,60,0.00,,,0.00,weatherlink.com 1.10,2013-05-15 03:04:00,
2013-05-14 23:19:00,54.4,41.0,30.02,SSW,196,0.0,0.0,60,0.00,,,0.00,weatherlink.com 1.10,2013-05-15 03:19:00,
2013-05-14 23:34:00,54.2,41.0,30.02,SSW,196,0.0,0.0,62,0.00,,,0.00,weatherlink.com 1.10,2013-05-15 03:34:00,
2013-05-14 23:49:00,54.2,41.0,30.01,SSW,196,0.0,2.0,61,0.00,,,0.00,weatherlink.com 1.10,2013-05-15 03:49:00,